Главная страница
METAR-TAF:

METAR-TAF

Аэропорты :

New Castle, Пенсильвания, США

широта: 41-01-31N, долгота: 080-24-48W, высота над уровнем моря: 326 м

Текущие метеонаблюдения

Эта сводка был подготовлена 55 минут назад, в 23:56 UTC
Ветер 7 Узел от юго-восточный, изменяющийся между восточный и южный
Температура 25°C
Влажность 79%
Давление 1016 hPa
Видимость: 16.1 км
Рассеянная облачность на высоте 5000 фута
Рассеянная облачность на высоте 6000 фута

METAR: KUCP 202356Z AUTO 13007KT 090V170 10SM BKN050 BKN060 25/21 A3000 RMK AO2 SLP168 T02500211 10294 20250 53002

Время: 20:51 (00:51 UTC)


TAF: отсутствует

Метеонаблюдения и прогнозы для более 4000 аэропортов (сводки METAR и TAF).

Имеющиеся станции представлены на карте желтыми и красными точками.

Чтобы увидеть название станции, наведите на нее мышь.

Затем щелкните, чтобы увидеть метеонаблюдения и метеопрогнозы.

Управление картой: чтобы увеличить масштаб, щелкните зеленые кнопки с черным крестиком; чтобы уменьшить масштаб, щелкните зеленую кнопку с тире; для просмотра соседних карт щелкайте зеленые стрелки.


METAR-TAF: